Naples, FL

11:29 AM EDT on July 01, 2015 (GMT -0400)
KFLNAPLE31 | | Change Station
CLOSE
Current Station
Personal Weather Station
Location: Naples, FL
Elevation: 20 ft
Nearby Weather Stations

Elev 20 ft 26.16 °N, 81.78 °W | Updated 13 minutes ago

Clear
Clear
88.8 °F
Feels Like 102 °F
N
6.0
Wind Variable Wind from SSE
Gusts 12.0 mph

Today
High -- | Low -- °F
--% Chance of Precip.
Yesterday
High -- | Low -- °F
Precip. -- in
6:38 AM 8:23 PM
Full, 100% visible
Pressure 30.14 in
Visibility 9.0 miles
Clouds Clear
Heat Index 102 °F
Dew Point 77 °F
Humidity 69%
Rainfall 0.00 in
Snow Depth Not available.
UV 11 out of 12
Pollen 3.70 out of 12
Air Quality Not available.
Flu Activity Not available.
METAR KAPF 011453Z 00000KT 9SM CLR 31/23 A3015 RMK AO2 SLP207 T03110228 $

More Conditions Fewer Conditions

Pressure 30.14 in
Visibility 9.0 miles
Clouds Clear
Heat Index 102 °F
Dew Point 77 °F
Humidity 69%
Rainfall 0.00 in
Snow Depth Not available.
UV 11 out of 12
Pollen 3.70 out of 12
Air Quality Not available.
Flu Activity Not available.
METAR KAPF 011453Z 00000KT 9SM CLR 31/23 A3015 RMK AO2 SLP207 T03110228 $

More Conditions Fewer Conditions

10-Day Weather Forecast

×

Almanac

Astronomy

Jul. 01, 2015 Rise Set
Actual Time
Civil Twilight
Nautical Twilight
Astronomical Twilight
Moon
Length of Visible Light
Length of Day
Tomorrow will be .
, % of the Moon is Illuminated

Today's Extremes

State Highs State Lows

Community

WunderPhotos

Upload Photos

1,834,226 photos uploaded!

WunderBlogs® & News

Nearby

Air Quality

  Air Quality AQ Index Pollutant
Not available.

Snow Depth

Station Depth Elevation

Earthquake Activity

City Distance Mag. Time & Date
Minimum magnitude displayed is 2.5.

Coastal Water Temperatures

Place Temperature

Stations

Nearby Weather Stations

Station Location Temp. Windchill Dew Point Humidity Wind Precip. Elev Updated Type